sensor_id;sensor_type;location;lat;lon;timestamp;pressure;altitude;pressure_sealevel;temperature;humidity
55032;BME280;40928;51.076;7.950;2023-04-21T00:00:00;96776.38;;;6.00;100.00
55032;BME280;40928;51.076;7.950;2023-04-21T00:02:25;96783.91;;;6.03;100.00
55032;BME280;40928;51.076;7.950;2023-04-21T00:04:52;96778.38;;;6.04;100.00
55032;BME280;40928;51.076;7.950;2023-04-21T00:07:18;96772.03;;;6.05;100.00
55032;BME280;40928;51.076;7.950;2023-04-21T00:09:44;96779.34;;;6.10;100.00
55032;BME280;40928;51.076;7.950;2023-04-21T00:12:10;96776.69;;;6.10;100.00
55032;BME280;40928;51.076;7.950;2023-04-21T00:14:35;96770.59;;;6.09;100.00
55032;BME280;40928;51.076;7.950;2023-04-21T00:17:01;96766.09;;;6.10;100.00
55032;BME280;40928;51.076;7.950;2023-04-21T00:19:26;96775.06;;;6.09;100.00
55032;BME280;40928;51.076;7.950;2023-04-21T00:21:53;96784.88;;;6.08;100.00
55032;BME280;40928;51.076;7.950;2023-04-21T00:24:23;96781.63;;;6.06;100.00
55032;BME280;40928;51.076;7.950;2023-04-21T00:26:50;96785.28;;;6.05;100.00
55032;BME280;40928;51.076;7.950;2023-04-21T00:29:15;96776.09;;;6.08;100.00
55032;BME280;40928;51.076;7.950;2023-04-21T00:31:41;96763.66;;;6.08;100.00
55032;BME280;40928;51.076;7.950;2023-04-21T00:34:06;96773.44;;;6.08;100.00
55032;BME280;40928;51.076;7.950;2023-04-21T00:36:32;96767.34;;;6.07;100.00
55032;BME280;40928;51.076;7.950;2023-04-21T00:38:57;96764.25;;;6.11;100.00
55032;BME280;40928;51.076;7.950;2023-04-21T00:41:23;96760.34;;;6.13;100.00
55032;BME280;40928;51.076;7.950;2023-04-21T00:44:02;96764.41;;;6.16;100.00
55032;BME280;40928;51.076;7.950;2023-04-21T00:46:30;96761.56;;;6.17;100.00
55032;BME280;40928;51.076;7.950;2023-04-21T00:48:56;96763.19;;;6.18;100.00
55032;BME280;40928;51.076;7.950;2023-04-21T00:51:23;96758.69;;;6.19;100.00
55032;BME280;40928;51.076;7.950;2023-04-21T00:53:49;96754.03;;;6.14;100.00
55032;BME280;40928;51.076;7.950;2023-04-21T00:56:16;96753.00;;;6.15;100.00
55032;BME280;40928;51.076;7.950;2023-04-21T00:58:44;96747.47;;;6.17;100.00
55032;BME280;40928;51.076;7.950;2023-04-21T01:01:09;96736.66;;;6.18;100.00
55032;BME280;40928;51.076;7.950;2023-04-21T01:03:35;96734.38;;;6.22;100.00
55032;BME280;40928;51.076;7.950;2023-04-21T01:06:01;96732.09;;;6.25;100.00
55032;BME280;40928;51.076;7.950;2023-04-21T01:08:28;96735.34;;;6.28;100.00
55032;BME280;40928;51.076;7.950;2023-04-21T01:10:53;96743.53;;;6.26;100.00
55032;BME280;40928;51.076;7.950;2023-04-21T01:13:19;96744.31;;;6.27;100.00
55032;BME280;40928;51.076;7.950;2023-04-21T01:15:47;96755.75;;;6.27;100.00
55032;BME280;40928;51.076;7.950;2023-04-21T01:18:12;96772.84;;;6.31;100.00
55032;BME280;40928;51.076;7.950;2023-04-21T01:20:39;96769.69;;;6.22;100.00
55032;BME280;40928;51.076;7.950;2023-04-21T01:23:05;96774.16;;;6.22;100.00
55032;BME280;40928;51.076;7.950;2023-04-21T01:25:31;96774.16;;;6.22;100.00
55032;BME280;40928;51.076;7.950;2023-04-21T01:27:57;96772.47;;;6.28;100.00
55032;BME280;40928;51.076;7.950;2023-04-21T01:30:23;96767.53;;;6.31;100.00
55032;BME280;40928;51.076;7.950;2023-04-21T01:32:49;96773.44;;;6.33;100.00
55032;BME280;40928;51.076;7.950;2023-04-21T01:35:15;96755.47;;;6.35;100.00
55032;BME280;40928;51.076;7.950;2023-04-21T01:37:41;96761.00;;;6.34;100.00
55032;BME280;40928;51.076;7.950;2023-04-21T01:40:07;96761.00;;;6.34;100.00
55032;BME280;40928;51.076;7.950;2023-04-21T01:42:35;96768.13;;;6.33;100.00
55032;BME280;40928;51.076;7.950;2023-04-21T01:45:01;96761.00;;;6.34;100.00
55032;BME280;40928;51.076;7.950;2023-04-21T01:47:27;96758.56;;;6.32;100.00
55032;BME280;40928;51.076;7.950;2023-04-21T01:49:53;96771.03;;;6.32;100.00
55032;BME280;40928;51.076;7.950;2023-04-21T01:52:18;96764.31;;;6.29;100.00
55032;BME280;40928;51.076;7.950;2023-04-21T01:54:44;96764.50;;;6.28;100.00
55032;BME280;40928;51.076;7.950;2023-04-21T01:57:10;96769.81;;;6.28;100.00
55032;BME280;40928;51.076;7.950;2023-04-21T01:59:36;96752.28;;;6.27;100.00
55032;BME280;40928;51.076;7.950;2023-04-21T02:02:02;96750.22;;;6.29;100.00
55032;BME280;40928;51.076;7.950;2023-04-21T02:04:27;96760.63;;;6.30;100.00
55032;BME280;40928;51.076;7.950;2023-04-21T02:06:53;96760.41;;;6.32;100.00
55032;BME280;40928;51.076;7.950;2023-04-21T02:09:18;96749.81;;;6.32;100.00
55032;BME280;40928;51.076;7.950;2023-04-21T02:11:44;96751.63;;;6.31;100.00
55032;BME280;40928;51.076;7.950;2023-04-21T02:14:09;96745.75;;;6.29;100.00
55032;BME280;40928;51.076;7.950;2023-04-21T02:16:35;96747.56;;;6.29;100.00
55032;BME280;40928;51.076;7.950;2023-04-21T02:19:01;96748.97;;;6.31;100.00
55032;BME280;40928;51.076;7.950;2023-04-21T02:21:27;96749.19;;;6.30;100.00
55032;BME280;40928;51.076;7.950;2023-04-21T02:23:53;96754.94;;;6.27;100.00
55032;BME280;40928;51.076;7.950;2023-04-21T02:26:19;96745.34;;;6.25;100.00
55032;BME280;40928;51.076;7.950;2023-04-21T02:28:45;96741.31;;;6.23;100.00
55032;BME280;40928;51.076;7.950;2023-04-21T02:31:14;96744.75;;;6.23;100.00
55032;BME280;40928;51.076;7.950;2023-04-21T02:33:39;96742.34;;;6.22;100.00
55032;BME280;40928;51.076;7.950;2023-04-21T02:36:05;96745.81;;;6.22;100.00
55032;BME280;40928;51.076;7.950;2023-04-21T02:38:31;96743.16;;;6.22;100.00
55032;BME280;40928;51.076;7.950;2023-04-21T02:40:57;96740.50;;;6.22;100.00
55032;BME280;40928;51.076;7.950;2023-04-21T02:43:23;96747.88;;;6.20;100.00
55032;BME280;40928;51.076;7.950;2023-04-21T02:45:50;96738.50;;;6.18;100.00
55032;BME280;40928;51.076;7.950;2023-04-21T02:48:16;96736.88;;;6.17;100.00
55032;BME280;40928;51.076;7.950;2023-04-21T02:50:50;96746.91;;;6.15;100.00
55032;BME280;40928;51.076;7.950;2023-04-21T02:53:21;96742.63;;;6.14;100.00
55032;BME280;40928;51.076;7.950;2023-04-21T02:55:46;96750.34;;;6.15;100.00
55032;BME280;40928;51.076;7.950;2023-04-21T02:58:12;96750.13;;;6.17;100.00
55032;BME280;40928;51.076;7.950;2023-04-21T03:00:37;96742.41;;;6.15;100.00
55032;BME280;40928;51.076;7.950;2023-04-21T03:03:03;96747.69;;;6.15;100.00
55032;BME280;40928;51.076;7.950;2023-04-21T03:05:29;96759.94;;;6.16;100.00
55032;BME280;40928;51.076;7.950;2023-04-21T03:07:54;96751.56;;;6.19;100.00
55032;BME280;40928;51.076;7.950;2023-04-21T03:10:20;96753.19;;;6.20;100.00
55032;BME280;40928;51.076;7.950;2023-04-21T03:12:45;96753.97;;;6.21;100.00
55032;BME280;40928;51.076;7.950;2023-04-21T03:15:11;96753.78;;;6.22;100.00
55032;BME280;40928;51.076;7.950;2023-04-21T03:17:39;96762.53;;;6.23;100.00
55032;BME280;40928;51.076;7.950;2023-04-21T03:20:05;96758.69;;;6.19;100.00
55032;BME280;40928;51.076;7.950;2023-04-21T03:22:36;96752.56;;;6.18;100.00
55032;BME280;40928;51.076;7.950;2023-04-21T03:25:02;96749.31;;;6.16;100.00
55032;BME280;40928;51.076;7.950;2023-04-21T03:27:28;96758.31;;;6.15;100.00
55032;BME280;40928;51.076;7.950;2023-04-21T03:29:55;96755.22;;;6.18;100.00
55032;BME280;40928;51.076;7.950;2023-04-21T03:32:21;96755.81;;;6.20;100.00
55032;BME280;40928;51.076;7.950;2023-04-21T03:34:46;96756.44;;;6.22;100.00
55032;BME280;40928;51.076;7.950;2023-04-21T03:37:12;96755.38;;;6.23;100.00
55032;BME280;40928;51.076;7.950;2023-04-21T03:39:38;96747.22;;;6.25;100.00
55032;BME280;40928;51.076;7.950;2023-04-21T03:42:05;96748.84;;;6.26;100.00
55032;BME280;40928;51.076;7.950;2023-04-21T03:44:30;96757.59;;;6.27;100.00
55032;BME280;40928;51.076;7.950;2023-04-21T03:46:56;96752.94;;;6.22;100.00
55032;BME280;40928;51.076;7.950;2023-04-21T03:49:22;96753.19;;;6.20;100.00
55032;BME280;40928;51.076;7.950;2023-04-21T03:51:48;96755.44;;;6.17;100.00
55032;BME280;40928;51.076;7.950;2023-04-21T03:54:13;96760.72;;;6.17;100.00
55032;BME280;40928;51.076;7.950;2023-04-21T03:56:39;96768.69;;;6.17;100.00
55032;BME280;40928;51.076;7.950;2023-04-21T03:59:05;96762.59;;;6.16;100.00
55032;BME280;40928;51.076;7.950;2023-04-21T04:01:31;96763.97;;;6.19;100.00
55032;BME280;40928;51.076;7.950;2023-04-21T04:03:56;96767.03;;;6.22;100.00
55032;BME280;40928;51.076;7.950;2023-04-21T04:06:21;96768.19;;;6.27;100.00
55032;BME280;40928;51.076;7.950;2023-04-21T04:08:47;96764.09;;;6.31;100.00
55032;BME280;40928;51.076;7.950;2023-04-21T04:11:13;96761.44;;;6.31;100.00
55032;BME280;40928;51.076;7.950;2023-04-21T04:13:38;96763.84;;;6.32;100.00
55032;BME280;40928;51.076;7.950;2023-04-21T04:16:04;96764.47;;;6.34;100.00
55032;BME280;40928;51.076;7.950;2023-04-21T04:18:29;96759.97;;;6.35;100.00
55032;BME280;40928;51.076;7.950;2023-04-21T04:20:55;96756.31;;;6.36;100.00
55032;BME280;40928;51.076;7.950;2023-04-21T04:23:20;96764.25;;;6.36;100.00
55032;BME280;40928;51.076;7.950;2023-04-21T04:25:46;96763.00;;;6.38;100.00
55032;BME280;40928;51.076;7.950;2023-04-21T04:28:12;96769.09;;;6.39;100.00
55032;BME280;40928;51.076;7.950;2023-04-21T04:30:40;96763.78;;;6.39;100.00
55032;BME280;40928;51.076;7.950;2023-04-21T04:33:06;96763.00;;;6.38;100.00
55032;BME280;40928;51.076;7.950;2023-04-21T04:35:31;96764.63;;;6.39;100.00
55032;BME280;40928;51.076;7.950;2023-04-21T04:37:57;96774.41;;;6.39;100.00
55032;BME280;40928;51.076;7.950;2023-04-21T04:40:23;96767.28;;;6.39;100.00
55032;BME280;40928;51.076;7.950;2023-04-21T04:42:49;96765.22;;;6.42;100.00
55032;BME280;40928;51.076;7.950;2023-04-21T04:45:15;96768.47;;;6.44;100.00
55032;BME280;40928;51.076;7.950;2023-04-21T04:47:41;96761.31;;;6.44;100.00
55032;BME280;40928;51.076;7.950;2023-04-21T04:50:07;96760.28;;;6.45;100.00
55032;BME280;40928;51.076;7.950;2023-04-21T04:52:32;96759.69;;;6.43;100.00
55032;BME280;40928;51.076;7.950;2023-04-21T04:54:58;96760.94;;;6.40;100.00
55032;BME280;40928;51.076;7.950;2023-04-21T04:57:23;96763.00;;;6.38;100.00
55032;BME280;40928;51.076;7.950;2023-04-21T04:59:53;96765.66;;;6.38;100.00
55032;BME280;40928;51.076;7.950;2023-04-21T05:02:20;96768.06;;;6.40;100.00
55032;BME280;40928;51.076;7.950;2023-04-21T05:04:46;96776.44;;;6.44;100.00
55032;BME280;40928;51.076;7.950;2023-04-21T05:07:12;96769.28;;;6.44;100.00
55032;BME280;40928;51.076;7.950;2023-04-21T05:09:37;96771.72;;;6.46;100.00
55032;BME280;40928;51.076;7.950;2023-04-21T05:12:03;96783.94;;;6.47;100.00
55032;BME280;40928;51.076;7.950;2023-04-21T05:14:29;96781.28;;;6.47;100.00
55032;BME280;40928;51.076;7.950;2023-04-21T05:16:54;96776.38;;;6.50;100.00
55032;BME280;40928;51.076;7.950;2023-04-21T05:19:20;96781.81;;;6.55;100.00
55032;BME280;40928;51.076;7.950;2023-04-21T05:21:45;96779.75;;;6.58;100.00
55032;BME280;40928;51.076;7.950;2023-04-21T05:24:11;96786.00;;;6.63;100.00
55032;BME280;40928;51.076;7.950;2023-04-21T05:26:36;96777.84;;;6.65;100.00
55032;BME280;40928;51.076;7.950;2023-04-21T05:29:02;96778.22;;;6.68;100.00
55032;BME280;40928;51.076;7.950;2023-04-21T05:31:27;96781.84;;;6.74;100.00
55032;BME280;40928;51.076;7.950;2023-04-21T05:33:53;96778.97;;;6.76;100.00
55032;BME280;40928;51.076;7.950;2023-04-21T05:36:18;96775.66;;;6.80;100.00
55032;BME280;40928;51.076;7.950;2023-04-21T05:38:49;96779.50;;;6.84;100.00
55032;BME280;40928;51.076;7.950;2023-04-21T05:41:14;96772.50;;;6.90;100.00
55032;BME280;40928;51.076;7.950;2023-04-21T05:43:40;96777.72;;;6.97;100.00
55032;BME280;40928;51.076;7.950;2023-04-21T05:46:09;96775.78;;;7.04;100.00
55032;BME280;40928;51.076;7.950;2023-04-21T05:48:37;96773.88;;;7.11;100.00
55032;BME280;40928;51.076;7.950;2023-04-21T05:51:14;96773.56;;;7.20;100.00
55032;BME280;40928;51.076;7.950;2023-04-21T05:53:40;96769.78;;;7.27;100.00
55032;BME280;40928;51.076;7.950;2023-04-21T05:56:10;96765.22;;;7.35;100.00
55032;BME280;40928;51.076;7.950;2023-04-21T05:58:36;96765.72;;;7.43;100.00
55032;BME280;40928;51.076;7.950;2023-04-21T06:01:04;96764.00;;;7.49;100.00
55032;BME280;40928;51.076;7.950;2023-04-21T06:03:31;96765.97;;;7.54;100.00
55032;BME280;40928;51.076;7.950;2023-04-21T06:05:57;96755.50;;;7.59;100.00
55032;BME280;40928;51.076;7.950;2023-04-21T06:08:22;96758.41;;;7.69;100.00
55032;BME280;40928;51.076;7.950;2023-04-21T06:10:48;96757.13;;;7.72;100.00
55032;BME280;40928;51.076;7.950;2023-04-21T06:13:13;96755.66;;;7.76;100.00
55032;BME280;40928;51.076;7.950;2023-04-21T06:15:39;96752.88;;;7.83;100.00
55032;BME280;40928;51.076;7.950;2023-04-21T06:18:04;96760.06;;;7.82;100.00
55032;BME280;40928;51.076;7.950;2023-04-21T06:20:30;96763.88;;;7.86;100.00
55032;BME280;40928;51.076;7.950;2023-04-21T06:22:55;96762.84;;;7.87;100.00
55032;BME280;40928;51.076;7.950;2023-04-21T06:25:21;96762.63;;;7.89;100.00
55032;BME280;40928;51.076;7.950;2023-04-21T06:27:46;96770.16;;;7.92;100.00
55032;BME280;40928;51.076;7.950;2023-04-21T06:30:12;96759.88;;;7.96;100.00
55032;BME280;40928;51.076;7.950;2023-04-21T06:32:38;96766.34;;;8.00;100.00
55032;BME280;40928;51.076;7.950;2023-04-21T06:35:04;96762.75;;;8.06;100.00
55032;BME280;40928;51.076;7.950;2023-04-21T06:37:29;96763.13;;;8.10;100.00
55032;BME280;40928;51.076;7.950;2023-04-21T06:39:55;96747.06;;;8.04;100.00
55032;BME280;40928;51.076;7.950;2023-04-21T06:42:21;96752.38;;;8.16;100.00
55032;BME280;40928;51.076;7.950;2023-04-21T06:44:46;96752.16;;;8.18;100.00
55032;BME280;40928;51.076;7.950;2023-04-21T06:47:12;96758.63;;;8.22;100.00
55032;BME280;40928;51.076;7.950;2023-04-21T06:49:37;96755.28;;;8.27;100.00
55032;BME280;40928;51.076;7.950;2023-04-21T06:52:03;96745.81;;;8.31;100.00
55032;BME280;40928;51.076;7.950;2023-04-21T06:54:29;96754.13;;;8.34;100.00
55032;BME280;40928;51.076;7.950;2023-04-21T06:56:55;96746.81;;;8.42;100.00
55032;BME280;40928;51.076;7.950;2023-04-21T06:59:21;96749.44;;;8.48;100.00
55032;BME280;40928;51.076;7.950;2023-04-21T07:01:47;96753.47;;;8.51;100.00
55032;BME280;40928;51.076;7.950;2023-04-21T07:04:19;96752.75;;;8.56;100.00
55032;BME280;40928;51.076;7.950;2023-04-21T07:06:46;96752.06;;;8.60;100.00
55032;BME280;40928;51.076;7.950;2023-04-21T07:09:11;96753.22;;;8.64;100.00
55032;BME280;40928;51.076;7.950;2023-04-21T07:11:37;96754.59;;;8.67;100.00
55032;BME280;40928;51.076;7.950;2023-04-21T07:14:02;96754.47;;;8.74;100.00
55032;BME280;40928;51.076;7.950;2023-04-21T07:16:28;96752.25;;;8.82;100.00
55032;BME280;40928;51.076;7.950;2023-04-21T07:18:54;96759.44;;;8.94;100.00
55032;BME280;40928;51.076;7.950;2023-04-21T07:21:19;96759.91;;;9.03;100.00
55032;BME280;40928;51.076;7.950;2023-04-21T07:23:45;96755.34;;;9.15;100.00
55032;BME280;40928;51.076;7.950;2023-04-21T07:26:10;96758.34;;;9.19;100.00
55032;BME280;40928;51.076;7.950;2023-04-21T07:28:39;96757.72;;;9.28;100.00
55032;BME280;40928;51.076;7.950;2023-04-21T07:31:05;96760.00;;;9.37;100.00
55032;BME280;40928;51.076;7.950;2023-04-21T07:33:31;96758.38;;;9.36;100.00
55032;BME280;40928;51.076;7.950;2023-04-21T07:35:57;96752.13;;;9.42;100.00
55032;BME280;40928;51.076;7.950;2023-04-21T07:38:22;96758.81;;;9.44;100.00
55032;BME280;40928;51.076;7.950;2023-04-21T07:40:48;96757.91;;;9.39;100.00
55032;BME280;40928;51.076;7.950;2023-04-21T07:43:14;96762.53;;;9.43;100.00
55032;BME280;40928;51.076;7.950;2023-04-21T07:45:39;96764.97;;;9.45;100.00
55032;BME280;40928;51.076;7.950;2023-04-21T07:48:05;96767.19;;;9.36;100.00
55032;BME280;40928;51.076;7.950;2023-04-21T07:50:32;96757.84;;;9.34;100.00
55032;BME280;40928;51.076;7.950;2023-04-21T07:52:59;96759.56;;;9.28;100.00
55032;BME280;40928;51.076;7.950;2023-04-21T07:55:26;96761.69;;;9.26;100.00
55032;BME280;40928;51.076;7.950;2023-04-21T07:57:51;96760.28;;;9.23;100.00
55032;BME280;40928;51.076;7.950;2023-04-21T08:00:17;96759.81;;;9.26;100.00
55032;BME280;40928;51.076;7.950;2023-04-21T08:02:43;96758.78;;;9.27;100.00
55032;BME280;40928;51.076;7.950;2023-04-21T08:05:08;96762.00;;;9.29;100.00
55032;BME280;40928;51.076;7.950;2023-04-21T08:07:34;96768.28;;;9.23;100.00
55032;BME280;40928;51.076;7.950;2023-04-21T08:09:59;96770.72;;;9.25;100.00
55032;BME280;40928;51.076;7.950;2023-04-21T08:12:25;96773.28;;;9.20;100.00
55032;BME280;40928;51.076;7.950;2023-04-21T08:14:51;96769.00;;;9.19;100.00
55032;BME280;40928;51.076;7.950;2023-04-21T08:17:16;96774.44;;;9.12;100.00
55032;BME280;40928;51.076;7.950;2023-04-21T08:19:42;96778.16;;;9.11;100.00
55032;BME280;40928;51.076;7.950;2023-04-21T08:22:08;96774.91;;;9.09;100.00
55032;BME280;40928;51.076;7.950;2023-04-21T08:24:33;96782.31;;;9.07;100.00
55032;BME280;40928;51.076;7.950;2023-04-21T08:26:59;96783.38;;;9.06;100.00
55032;BME280;40928;51.076;7.950;2023-04-21T08:29:27;96781.28;;;9.08;100.00
55032;BME280;40928;51.076;7.950;2023-04-21T08:31:52;96782.09;;;9.08;100.00
55032;BME280;40928;51.076;7.950;2023-04-21T08:34:18;96780.50;;;9.07;100.00
55032;BME280;40928;51.076;7.950;2023-04-21T08:36:44;96776.41;;;9.05;100.00
55032;BME280;40928;51.076;7.950;2023-04-21T08:39:12;96783.88;;;9.03;100.00
55032;BME280;40928;51.076;7.950;2023-04-21T08:41:38;96780.13;;;9.04;100.00
55032;BME280;40928;51.076;7.950;2023-04-21T08:44:06;96786.03;;;9.06;100.00
55032;BME280;40928;51.076;7.950;2023-04-21T08:46:32;96788.47;;;9.07;100.00
55032;BME280;40928;51.076;7.950;2023-04-21T08:48:58;96781.53;;;9.06;100.00
55032;BME280;40928;51.076;7.950;2023-04-21T08:51:26;96785.09;;;9.12;100.00
55032;BME280;40928;51.076;7.950;2023-04-21T08:53:53;96788.94;;;9.16;100.00
55032;BME280;40928;51.076;7.950;2023-04-21T08:56:19;96780.34;;;9.14;100.00
55032;BME280;40928;51.076;7.950;2023-04-21T08:58:45;96790.06;;;9.20;100.00
55032;BME280;40928;51.076;7.950;2023-04-21T09:01:10;96790.06;;;9.20;100.00
55032;BME280;40928;51.076;7.950;2023-04-21T09:03:36;96786.22;;;9.28;100.00
55032;BME280;40928;51.076;7.950;2023-04-21T09:06:07;96794.06;;;9.35;100.00
55032;BME280;40928;51.076;7.950;2023-04-21T09:08:35;96792.56;;;9.39;100.00
55032;BME280;40928;51.076;7.950;2023-04-21T09:11:01;96791.84;;;9.43;100.00
55032;BME280;40928;51.076;7.950;2023-04-21T09:13:36;96787.22;;;9.39;100.00
55032;BME280;40928;51.076;7.950;2023-04-21T09:16:03;96783.06;;;9.43;100.00
55032;BME280;40928;51.076;7.950;2023-04-21T09:18:30;96780.25;;;9.50;100.00
55032;BME280;40928;51.076;7.950;2023-04-21T09:21:10;96781.97;;;9.56;100.00
55032;BME280;40928;51.076;7.950;2023-04-21T09:23:47;96767.78;;;9.67;100.00
55032;BME280;40928;51.076;7.950;2023-04-21T09:26:13;96766.31;;;9.77;100.00
55032;BME280;40928;51.076;7.950;2023-04-21T09:28:46;96762.94;;;9.81;100.00
55032;BME280;40928;51.076;7.950;2023-04-21T09:31:16;96756.66;;;9.87;100.00
55032;BME280;40928;51.076;7.950;2023-04-21T09:33:46;96763.75;;;9.99;100.00
55032;BME280;40928;51.076;7.950;2023-04-21T09:36:23;96768.72;;;10.07;100.00
55032;BME280;40928;51.076;7.950;2023-04-21T09:38:59;96761.84;;;10.11;100.00
55032;BME280;40928;51.076;7.950;2023-04-21T09:41:26;96764.69;;;10.21;100.00
55032;BME280;40928;51.076;7.950;2023-04-21T09:43:52;96763.38;;;10.24;100.00
55032;BME280;40928;51.076;7.950;2023-04-21T09:46:18;96773.16;;;10.18;100.00
55032;BME280;40928;51.076;7.950;2023-04-21T09:48:45;96779.31;;;10.19;100.00
55032;BME280;40928;51.076;7.950;2023-04-21T09:51:12;96770.03;;;10.21;100.00
55032;BME280;40928;51.076;7.950;2023-04-21T09:53:39;96777.28;;;10.26;100.00
55032;BME280;40928;51.076;7.950;2023-04-21T09:56:11;96783.34;;;10.21;100.00
55032;BME280;40928;51.076;7.950;2023-04-21T09:58:56;96782.38;;;10.28;100.00
55032;BME280;40928;51.076;7.950;2023-04-21T10:01:23;96772.34;;;10.35;100.00
55032;BME280;40928;51.076;7.950;2023-04-21T10:03:51;96780.78;;;10.44;100.00
55032;BME280;40928;51.076;7.950;2023-04-21T10:06:18;96785.97;;;10.50;100.00
55032;BME280;40928;51.076;7.950;2023-04-21T10:08:44;96776.66;;;10.53;100.00
55032;BME280;40928;51.076;7.950;2023-04-21T10:11:10;96773.19;;;10.53;100.00
55032;BME280;40928;51.076;7.950;2023-04-21T10:13:37;96776.47;;;10.60;100.00
55032;BME280;40928;51.076;7.950;2023-04-21T10:16:09;96779.66;;;10.57;100.00
55032;BME280;40928;51.076;7.950;2023-04-21T10:18:42;96762.97;;;10.66;100.00
55032;BME280;40928;51.076;7.950;2023-04-21T10:21:16;96774.09;;;10.80;100.00
55032;BME280;40928;51.076;7.950;2023-04-21T10:23:46;96770.47;;;10.87;100.00
55032;BME280;40928;51.076;7.950;2023-04-21T10:28:56;96763.22;;;11.04;100.00
55032;BME280;40928;51.076;7.950;2023-04-21T10:31:27;96762.19;;;11.10;100.00
55032;BME280;40928;51.076;7.950;2023-04-21T10:42:18;96755.31;;;11.15;100.00
55032;BME280;40928;51.076;7.950;2023-04-21T10:47:24;96759.34;;;11.17;100.00
55032;BME280;40928;51.076;7.950;2023-04-21T10:49:51;96761.22;;;11.17;100.00
55032;BME280;40928;51.076;7.950;2023-04-21T10:52:17;96750.28;;;11.18;100.00
55032;BME280;40928;51.076;7.950;2023-04-21T10:57:18;96747.34;;;11.42;100.00
55032;BME280;40928;51.076;7.950;2023-04-21T10:59:46;96749.47;;;11.40;100.00
55032;BME280;40928;51.076;7.950;2023-04-21T11:02:13;96739.81;;;11.39;100.00
55032;BME280;40928;51.076;7.950;2023-04-21T11:04:40;96748.63;;;11.39;100.00
55032;BME280;40928;51.076;7.950;2023-04-21T11:07:24;96747.06;;;11.43;100.00
55032;BME280;40928;51.076;7.950;2023-04-21T11:10:01;96734.56;;;11.49;100.00
55032;BME280;40928;51.076;7.950;2023-04-21T11:12:29;96730.59;;;11.52;100.00
55032;BME280;40928;51.076;7.950;2023-04-21T11:14:55;96737.03;;;11.56;100.00
55032;BME280;40928;51.076;7.950;2023-04-21T11:17:21;96732.25;;;11.58;100.00
55032;BME280;40928;51.076;7.950;2023-04-21T11:19:52;96724.78;;;11.60;100.00
55032;BME280;40928;51.076;7.950;2023-04-21T11:22:19;96722.63;;;11.57;100.00
55032;BME280;40928;51.076;7.950;2023-04-21T11:24:47;96738.44;;;11.58;100.00
55032;BME280;40928;51.076;7.950;2023-04-21T11:27:13;96728.59;;;11.64;100.00
55032;BME280;40928;51.076;7.950;2023-04-21T11:29:40;96731.84;;;11.71;100.00
55032;BME280;40928;51.076;7.950;2023-04-21T11:32:07;96723.59;;;11.78;100.00
55032;BME280;40928;51.076;7.950;2023-04-21T11:34:35;96723.53;;;11.68;100.00
55032;BME280;40928;51.076;7.950;2023-04-21T11:37:00;96712.03;;;11.67;100.00
55032;BME280;40928;51.076;7.950;2023-04-21T11:39:26;96709.88;;;11.69;100.00
55032;BME280;40928;51.076;7.950;2023-04-21T11:41:51;96710.50;;;11.77;100.00
55032;BME280;40928;51.076;7.950;2023-04-21T11:44:41;96711.97;;;11.90;100.00
55032;BME280;40928;51.076;7.950;2023-04-21T11:47:21;96717.09;;;11.96;100.00
55032;BME280;40928;51.076;7.950;2023-04-21T11:49:53;96712.41;;;12.09;100.00
55032;BME280;40928;51.076;7.950;2023-04-21T11:52:29;96699.00;;;12.09;100.00
55032;BME280;40928;51.076;7.950;2023-04-21T11:55:01;96704.41;;;12.14;100.00
55032;BME280;40928;51.076;7.950;2023-04-21T11:57:28;96706.06;;;12.20;100.00
55032;BME280;40928;51.076;7.950;2023-04-21T11:59:57;96700.97;;;12.24;100.00
55032;BME280;40928;51.076;7.950;2023-04-21T12:02:28;96704.00;;;12.32;100.00
55032;BME280;40928;51.076;7.950;2023-04-21T12:05:08;96695.81;;;12.49;100.00
55032;BME280;40928;51.076;7.950;2023-04-21T12:07:36;96699.13;;;12.72;100.00
55032;BME280;40928;51.076;7.950;2023-04-21T12:10:08;96696.88;;;13.07;99.68
55032;BME280;40928;51.076;7.950;2023-04-21T12:12:40;96696.97;;;13.38;100.00
55032;BME280;40928;51.076;7.950;2023-04-21T12:15:10;96701.63;;;13.74;99.31
55032;BME280;40928;51.076;7.950;2023-04-21T12:17:46;96694.09;;;14.17;95.74
55032;BME280;40928;51.076;7.950;2023-04-21T12:20:14;96681.91;;;14.71;94.59
55032;BME280;40928;51.076;7.950;2023-04-21T12:22:40;96678.75;;;15.25;91.03
55032;BME280;40928;51.076;7.950;2023-04-21T12:25:06;96678.50;;;15.21;86.92
55032;BME280;40928;51.076;7.950;2023-04-21T12:27:33;96679.38;;;15.56;87.59
55032;BME280;40928;51.076;7.950;2023-04-21T12:29:58;96674.16;;;15.65;87.42
55032;BME280;40928;51.076;7.950;2023-04-21T12:32:24;96678.34;;;15.87;87.67
55032;BME280;40928;51.076;7.950;2023-04-21T12:34:50;96674.50;;;15.98;85.47
55032;BME280;40928;51.076;7.950;2023-04-21T12:37:17;96663.59;;;16.13;85.04
55032;BME280;40928;51.076;7.950;2023-04-21T12:39:42;96663.88;;;16.12;84.62
55032;BME280;40928;51.076;7.950;2023-04-21T12:42:08;96653.13;;;16.07;84.38
55032;BME280;40928;51.076;7.950;2023-04-21T12:44:34;96650.38;;;16.17;84.45
55032;BME280;40928;51.076;7.950;2023-04-21T12:46:59;96654.72;;;16.13;84.02
55032;BME280;40928;51.076;7.950;2023-04-21T12:49:25;96654.19;;;16.11;85.16
55032;BME280;40928;51.076;7.950;2023-04-21T12:51:50;96640.41;;;15.83;84.96
55032;BME280;40928;51.076;7.950;2023-04-21T12:54:16;96647.72;;;15.37;85.34
55032;BME280;40928;51.076;7.950;2023-04-21T12:56:42;96638.38;;;15.25;88.58
55032;BME280;40928;51.076;7.950;2023-04-21T12:59:09;96648.34;;;15.24;89.79
55032;BME280;40928;51.076;7.950;2023-04-21T13:01:36;96639.22;;;15.20;89.19
55032;BME280;40928;51.076;7.950;2023-04-21T13:04:02;96647.06;;;15.11;89.18
55032;BME280;40928;51.076;7.950;2023-04-21T13:06:28;96641.47;;;15.07;88.61
55032;BME280;40928;51.076;7.950;2023-04-21T13:08:54;96644.19;;;14.97;88.90
55032;BME280;40928;51.076;7.950;2023-04-21T13:11:20;96637.47;;;14.95;87.79